sensor_id;sensor_type;location;lat;lon;timestamp;temperature;humidity
63017;DHT22;50274;45.640;11.756;2023-07-29T00:00:28;24.80;67.10
63017;DHT22;50274;45.640;11.756;2023-07-29T00:02:57;24.70;67.40
63017;DHT22;50274;45.640;11.756;2023-07-29T00:05:25;24.60;67.40
63017;DHT22;50274;45.640;11.756;2023-07-29T00:07:53;24.60;67.50
63017;DHT22;50274;45.640;11.756;2023-07-29T00:10:21;24.60;67.60
63017;DHT22;50274;45.640;11.756;2023-07-29T00:12:49;24.50;67.70
63017;DHT22;50274;45.640;11.756;2023-07-29T00:15:20;24.50;67.70
63017;DHT22;50274;45.640;11.756;2023-07-29T00:17:50;24.50;67.70
63017;DHT22;50274;45.640;11.756;2023-07-29T00:20:18;24.50;67.70
63017;DHT22;50274;45.640;11.756;2023-07-29T00:22:49;24.50;67.70
63017;DHT22;50274;45.640;11.756;2023-07-29T00:25:25;24.50;67.70
63017;DHT22;50274;45.640;11.756;2023-07-29T00:27:51;24.50;67.80
63017;DHT22;50274;45.640;11.756;2023-07-29T00:30:24;24.50;67.80
63017;DHT22;50274;45.640;11.756;2023-07-29T00:32:52;24.40;67.90
63017;DHT22;50274;45.640;11.756;2023-07-29T00:35:22;24.40;67.90
63017;DHT22;50274;45.640;11.756;2023-07-29T00:37:50;24.40;67.90
63017;DHT22;50274;45.640;11.756;2023-07-29T00:40:20;24.40;67.90
63017;DHT22;50274;45.640;11.756;2023-07-29T00:42:49;24.30;67.90
63017;DHT22;50274;45.640;11.756;2023-07-29T00:45:18;24.30;67.90
63017;DHT22;50274;45.640;11.756;2023-07-29T00:47:47;24.30;68.00
63017;DHT22;50274;45.640;11.756;2023-07-29T00:50:16;24.30;68.00
63017;DHT22;50274;45.640;11.756;2023-07-29T00:52:45;24.30;68.10
63017;DHT22;50274;45.640;11.756;2023-07-29T00:55:14;24.20;68.10
63017;DHT22;50274;45.640;11.756;2023-07-29T00:57:48;24.20;68.10
63017;DHT22;50274;45.640;11.756;2023-07-29T01:00:21;24.20;68.20
63017;DHT22;50274;45.640;11.756;2023-07-29T01:02:49;24.20;68.30
63017;DHT22;50274;45.640;11.756;2023-07-29T01:05:18;24.10;68.30
63017;DHT22;50274;45.640;11.756;2023-07-29T01:10:40;24.10;68.50
63017;DHT22;50274;45.640;11.756;2023-07-29T01:16:22;24.10;68.40
63017;DHT22;50274;45.640;11.756;2023-07-29T01:18:51;24.10;68.50
63017;DHT22;50274;45.640;11.756;2023-07-29T01:21:23;24.00;68.60
63017;DHT22;50274;45.640;11.756;2023-07-29T01:23:58;23.90;68.70
63017;DHT22;50274;45.640;11.756;2023-07-29T01:26:27;23.90;68.90
63017;DHT22;50274;45.640;11.756;2023-07-29T01:28:56;23.80;69.00
63017;DHT22;50274;45.640;11.756;2023-07-29T01:31:43;23.80;69.00
63017;DHT22;50274;45.640;11.756;2023-07-29T01:34:17;23.80;69.00
63017;DHT22;50274;45.640;11.756;2023-07-29T01:36:50;23.80;69.10
63017;DHT22;50274;45.640;11.756;2023-07-29T01:39:21;23.80;69.00
63017;DHT22;50274;45.640;11.756;2023-07-29T01:41:51;23.80;69.00
63017;DHT22;50274;45.640;11.756;2023-07-29T01:44:18;23.80;69.00
63017;DHT22;50274;45.640;11.756;2023-07-29T01:46:46;23.80;69.00
63017;DHT22;50274;45.640;11.756;2023-07-29T01:49:17;23.80;69.00
63017;DHT22;50274;45.640;11.756;2023-07-29T01:51:45;23.80;69.00
63017;DHT22;50274;45.640;11.756;2023-07-29T01:54:13;23.70;69.00
63017;DHT22;50274;45.640;11.756;2023-07-29T01:56:41;23.80;69.00
63017;DHT22;50274;45.640;11.756;2023-07-29T01:59:12;23.70;69.00
63017;DHT22;50274;45.640;11.756;2023-07-29T02:01:43;23.60;69.10
63017;DHT22;50274;45.640;11.756;2023-07-29T02:04:11;23.60;69.10
63017;DHT22;50274;45.640;11.756;2023-07-29T02:06:39;23.60;69.20
63017;DHT22;50274;45.640;11.756;2023-07-29T02:09:07;23.60;69.30
63017;DHT22;50274;45.640;11.756;2023-07-29T02:11:38;23.50;69.30
63017;DHT22;50274;45.640;11.756;2023-07-29T02:14:04;23.60;69.30
63017;DHT22;50274;45.640;11.756;2023-07-29T02:16:32;23.50;69.20
63017;DHT22;50274;45.640;11.756;2023-07-29T02:19:04;23.50;69.20
63017;DHT22;50274;45.640;11.756;2023-07-29T02:21:32;23.40;69.30
63017;DHT22;50274;45.640;11.756;2023-07-29T02:24:01;23.30;69.50
63017;DHT22;50274;45.640;11.756;2023-07-29T02:26:29;23.30;69.60
63017;DHT22;50274;45.640;11.756;2023-07-29T02:28:55;23.30;69.70
63017;DHT22;50274;45.640;11.756;2023-07-29T02:31:28;23.20;69.70
63017;DHT22;50274;45.640;11.756;2023-07-29T02:33:56;23.20;69.80
63017;DHT22;50274;45.640;11.756;2023-07-29T02:36:24;23.20;69.80
63017;DHT22;50274;45.640;11.756;2023-07-29T02:38:50;23.20;69.80
63017;DHT22;50274;45.640;11.756;2023-07-29T02:41:20;23.20;69.80
63017;DHT22;50274;45.640;11.756;2023-07-29T02:43:50;23.20;69.70
63017;DHT22;50274;45.640;11.756;2023-07-29T02:46:17;23.20;69.60
63017;DHT22;50274;45.640;11.756;2023-07-29T02:48:45;23.20;69.50
63017;DHT22;50274;45.640;11.756;2023-07-29T02:51:15;23.30;69.40
63017;DHT22;50274;45.640;11.756;2023-07-29T02:53:44;23.30;69.30
63017;DHT22;50274;45.640;11.756;2023-07-29T02:56:12;23.30;69.20
63017;DHT22;50274;45.640;11.756;2023-07-29T02:58:40;23.20;69.10
63017;DHT22;50274;45.640;11.756;2023-07-29T03:01:08;23.20;69.10
63017;DHT22;50274;45.640;11.756;2023-07-29T03:03:34;23.10;69.10
63017;DHT22;50274;45.640;11.756;2023-07-29T03:06:08;23.10;69.10
63017;DHT22;50274;45.640;11.756;2023-07-29T03:08:36;23.10;69.10
63017;DHT22;50274;45.640;11.756;2023-07-29T03:11:07;23.10;68.90
63017;DHT22;50274;45.640;11.756;2023-07-29T03:13:36;23.10;68.90
63017;DHT22;50274;45.640;11.756;2023-07-29T03:16:14;23.10;68.80
63017;DHT22;50274;45.640;11.756;2023-07-29T03:18:43;23.10;68.80
63017;DHT22;50274;45.640;11.756;2023-07-29T03:21:10;23.10;68.80
63017;DHT22;50274;45.640;11.756;2023-07-29T03:23:38;23.10;68.80
63017;DHT22;50274;45.640;11.756;2023-07-29T03:26:04;23.10;68.80
63017;DHT22;50274;45.640;11.756;2023-07-29T03:28:39;23.10;68.80
63017;DHT22;50274;45.640;11.756;2023-07-29T03:31:05;23.10;68.80
63017;DHT22;50274;45.640;11.756;2023-07-29T03:33:36;23.10;68.70
63017;DHT22;50274;45.640;11.756;2023-07-29T03:36:04;23.00;68.70
63017;DHT22;50274;45.640;11.756;2023-07-29T03:38:33;23.00;68.70
63017;DHT22;50274;45.640;11.756;2023-07-29T03:41:00;23.00;68.70
63017;DHT22;50274;45.640;11.756;2023-07-29T03:43:30;23.00;68.80
63017;DHT22;50274;45.640;11.756;2023-07-29T03:45:59;23.00;68.80
63017;DHT22;50274;45.640;11.756;2023-07-29T03:48:29;22.90;68.80
63017;DHT22;50274;45.640;11.756;2023-07-29T03:51:00;22.90;68.80
63017;DHT22;50274;45.640;11.756;2023-07-29T03:53:31;23.00;68.80
63017;DHT22;50274;45.640;11.756;2023-07-29T03:56:01;22.90;68.70
63017;DHT22;50274;45.640;11.756;2023-07-29T03:58:33;22.90;68.70
63017;DHT22;50274;45.640;11.756;2023-07-29T04:01:01;22.90;68.70
63017;DHT22;50274;45.640;11.756;2023-07-29T04:03:29;22.90;68.70
63017;DHT22;50274;45.640;11.756;2023-07-29T04:05:55;22.90;68.80
63017;DHT22;50274;45.640;11.756;2023-07-29T04:08:21;22.90;68.80
63017;DHT22;50274;45.640;11.756;2023-07-29T04:10:47;22.90;68.80
63017;DHT22;50274;45.640;11.756;2023-07-29T04:13:19;22.80;68.90
63017;DHT22;50274;45.640;11.756;2023-07-29T04:15:48;22.80;68.90
63017;DHT22;50274;45.640;11.756;2023-07-29T04:18:21;22.80;69.00
63017;DHT22;50274;45.640;11.756;2023-07-29T04:20:49;22.80;69.00
63017;DHT22;50274;45.640;11.756;2023-07-29T04:23:15;22.80;68.90
63017;DHT22;50274;45.640;11.756;2023-07-29T04:25:49;22.90;68.90
63017;DHT22;50274;45.640;11.756;2023-07-29T04:28:18;22.90;68.90
63017;DHT22;50274;45.640;11.756;2023-07-29T04:30:46;23.00;68.70
63017;DHT22;50274;45.640;11.756;2023-07-29T04:33:17;23.00;68.70
63017;DHT22;50274;45.640;11.756;2023-07-29T04:35:45;23.10;68.60
63017;DHT22;50274;45.640;11.756;2023-07-29T04:38:11;23.00;68.60
63017;DHT22;50274;45.640;11.756;2023-07-29T04:40:39;23.10;68.60
63017;DHT22;50274;45.640;11.756;2023-07-29T04:43:10;23.10;68.50
63017;DHT22;50274;45.640;11.756;2023-07-29T04:45:35;23.10;68.50
63017;DHT22;50274;45.640;11.756;2023-07-29T04:48:01;23.10;68.40
63017;DHT22;50274;45.640;11.756;2023-07-29T04:50:27;23.20;68.40
63017;DHT22;50274;45.640;11.756;2023-07-29T04:52:53;23.20;68.40
63017;DHT22;50274;45.640;11.756;2023-07-29T04:55:19;23.20;68.40
63017;DHT22;50274;45.640;11.756;2023-07-29T04:57:45;23.30;68.50
63017;DHT22;50274;45.640;11.756;2023-07-29T05:00:11;23.30;68.50
63017;DHT22;50274;45.640;11.756;2023-07-29T05:02:40;23.30;68.40
63017;DHT22;50274;45.640;11.756;2023-07-29T05:05:06;23.30;68.40
63017;DHT22;50274;45.640;11.756;2023-07-29T05:07:35;23.40;68.40
63017;DHT22;50274;45.640;11.756;2023-07-29T05:10:01;23.40;68.30
63017;DHT22;50274;45.640;11.756;2023-07-29T05:12:27;23.40;68.30
63017;DHT22;50274;45.640;11.756;2023-07-29T05:14:59;23.40;68.30
63017;DHT22;50274;45.640;11.756;2023-07-29T05:17:29;23.50;68.40
63017;DHT22;50274;45.640;11.756;2023-07-29T05:19:59;23.40;68.40
63017;DHT22;50274;45.640;11.756;2023-07-29T05:22:26;23.40;68.50
63017;DHT22;50274;45.640;11.756;2023-07-29T05:24:51;23.40;68.70
63017;DHT22;50274;45.640;11.756;2023-07-29T05:27:17;23.40;68.80
63017;DHT22;50274;45.640;11.756;2023-07-29T05:29:43;23.40;68.90
63017;DHT22;50274;45.640;11.756;2023-07-29T05:32:11;23.40;69.10
63017;DHT22;50274;45.640;11.756;2023-07-29T05:34:39;23.40;69.10
63017;DHT22;50274;45.640;11.756;2023-07-29T05:37:05;23.50;69.30
63017;DHT22;50274;45.640;11.756;2023-07-29T05:39:31;23.50;69.40
63017;DHT22;50274;45.640;11.756;2023-07-29T05:41:58;23.60;69.40
63017;DHT22;50274;45.640;11.756;2023-07-29T05:44:24;23.60;69.70
63017;DHT22;50274;45.640;11.756;2023-07-29T05:46:50;23.80;69.90
63017;DHT22;50274;45.640;11.756;2023-07-29T05:49:16;23.80;69.90
63017;DHT22;50274;45.640;11.756;2023-07-29T05:51:42;23.90;69.80
63017;DHT22;50274;45.640;11.756;2023-07-29T05:54:08;24.00;69.90
63017;DHT22;50274;45.640;11.756;2023-07-29T05:56:34;24.10;70.00
63017;DHT22;50274;45.640;11.756;2023-07-29T05:59:00;24.10;69.90
63017;DHT22;50274;45.640;11.756;2023-07-29T06:01:28;24.10;69.80
63017;DHT22;50274;45.640;11.756;2023-07-29T06:03:56;24.20;69.80
63017;DHT22;50274;45.640;11.756;2023-07-29T06:06:22;24.30;69.80
63017;DHT22;50274;45.640;11.756;2023-07-29T06:08:50;24.40;69.80
63017;DHT22;50274;45.640;11.756;2023-07-29T06:11:15;24.40;69.80
63017;DHT22;50274;45.640;11.756;2023-07-29T06:13:45;24.60;69.90
63017;DHT22;50274;45.640;11.756;2023-07-29T06:16:13;24.60;70.10
63017;DHT22;50274;45.640;11.756;2023-07-29T06:18:39;24.70;69.90
63017;DHT22;50274;45.640;11.756;2023-07-29T06:21:08;24.80;69.70
63017;DHT22;50274;45.640;11.756;2023-07-29T06:23:37;24.90;69.70
63017;DHT22;50274;45.640;11.756;2023-07-29T06:26:03;25.00;69.80
63017;DHT22;50274;45.640;11.756;2023-07-29T06:28:29;25.10;69.60
63017;DHT22;50274;45.640;11.756;2023-07-29T06:30:55;25.20;69.70
63017;DHT22;50274;45.640;11.756;2023-07-29T06:33:20;25.20;69.40
63017;DHT22;50274;45.640;11.756;2023-07-29T06:35:49;25.30;69.20
63017;DHT22;50274;45.640;11.756;2023-07-29T06:38:18;25.40;69.20
63017;DHT22;50274;45.640;11.756;2023-07-29T06:40:47;25.50;69.00
63017;DHT22;50274;45.640;11.756;2023-07-29T06:43:13;25.60;68.90
63017;DHT22;50274;45.640;11.756;2023-07-29T06:45:40;25.60;68.80
63017;DHT22;50274;45.640;11.756;2023-07-29T06:48:05;25.70;68.70
63017;DHT22;50274;45.640;11.756;2023-07-29T06:50:34;25.80;68.60
63017;DHT22;50274;45.640;11.756;2023-07-29T06:53:00;25.80;68.50
63017;DHT22;50274;45.640;11.756;2023-07-29T06:55:26;25.80;68.30
63017;DHT22;50274;45.640;11.756;2023-07-29T06:57:55;25.90;68.30
63017;DHT22;50274;45.640;11.756;2023-07-29T07:00:23;26.00;68.10
63017;DHT22;50274;45.640;11.756;2023-07-29T07:02:49;26.00;67.80
63017;DHT22;50274;45.640;11.756;2023-07-29T07:05:14;26.10;67.80
63017;DHT22;50274;45.640;11.756;2023-07-29T07:07:43;26.10;67.70
63017;DHT22;50274;45.640;11.756;2023-07-29T07:10:09;26.20;67.60
63017;DHT22;50274;45.640;11.756;2023-07-29T07:12:35;26.30;67.80
63017;DHT22;50274;45.640;11.756;2023-07-29T07:15:01;26.40;67.60
63017;DHT22;50274;45.640;11.756;2023-07-29T07:17:27;26.50;67.50
63017;DHT22;50274;45.640;11.756;2023-07-29T07:19:53;26.50;67.20
63017;DHT22;50274;45.640;11.756;2023-07-29T07:22:18;26.60;66.90
63017;DHT22;50274;45.640;11.756;2023-07-29T07:24:44;26.70;66.70
63017;DHT22;50274;45.640;11.756;2023-07-29T07:27:10;26.70;66.10
63017;DHT22;50274;45.640;11.756;2023-07-29T07:29:36;26.80;65.90
63017;DHT22;50274;45.640;11.756;2023-07-29T07:32:10;26.80;65.70
63017;DHT22;50274;45.640;11.756;2023-07-29T07:34:36;26.90;65.40
63017;DHT22;50274;45.640;11.756;2023-07-29T07:37:02;27.00;65.20
63017;DHT22;50274;45.640;11.756;2023-07-29T07:39:29;27.00;65.40
63017;DHT22;50274;45.640;11.756;2023-07-29T07:41:55;27.10;65.30
63017;DHT22;50274;45.640;11.756;2023-07-29T07:44:21;27.10;65.30
63017;DHT22;50274;45.640;11.756;2023-07-29T07:46:47;27.20;65.30
63017;DHT22;50274;45.640;11.756;2023-07-29T07:49:13;27.20;65.00
63017;DHT22;50274;45.640;11.756;2023-07-29T07:51:39;27.30;64.50
63017;DHT22;50274;45.640;11.756;2023-07-29T07:54:05;27.40;64.20
63017;DHT22;50274;45.640;11.756;2023-07-29T07:56:32;27.40;64.10
63017;DHT22;50274;45.640;11.756;2023-07-29T07:58:57;27.50;64.30
63017;DHT22;50274;45.640;11.756;2023-07-29T08:01:23;27.60;64.10
63017;DHT22;50274;45.640;11.756;2023-07-29T08:03:49;27.60;63.90
63017;DHT22;50274;45.640;11.756;2023-07-29T08:06:15;27.60;63.50
63017;DHT22;50274;45.640;11.756;2023-07-29T08:08:40;27.70;63.40
63017;DHT22;50274;45.640;11.756;2023-07-29T08:11:06;27.70;63.10
63017;DHT22;50274;45.640;11.756;2023-07-29T08:13:32;27.70;63.10
63017;DHT22;50274;45.640;11.756;2023-07-29T08:15:58;27.70;63.00
63017;DHT22;50274;45.640;11.756;2023-07-29T08:18:24;27.80;62.90
63017;DHT22;50274;45.640;11.756;2023-07-29T08:20:54;27.90;62.70
63017;DHT22;50274;45.640;11.756;2023-07-29T08:23:21;28.00;62.00
63017;DHT22;50274;45.640;11.756;2023-07-29T08:25:54;28.00;62.00
63017;DHT22;50274;45.640;11.756;2023-07-29T08:28:24;28.10;62.40
63017;DHT22;50274;45.640;11.756;2023-07-29T08:30:53;28.10;61.90
63017;DHT22;50274;45.640;11.756;2023-07-29T08:33:21;28.10;61.30
63017;DHT22;50274;45.640;11.756;2023-07-29T08:35:46;28.10;61.20
63017;DHT22;50274;45.640;11.756;2023-07-29T08:38:12;28.20;60.70
63017;DHT22;50274;45.640;11.756;2023-07-29T08:40:43;28.20;60.40
63017;DHT22;50274;45.640;11.756;2023-07-29T08:43:12;28.10;60.60
63017;DHT22;50274;45.640;11.756;2023-07-29T08:45:40;28.10;60.80
63017;DHT22;50274;45.640;11.756;2023-07-29T08:48:10;28.10;61.00
63017;DHT22;50274;45.640;11.756;2023-07-29T08:50:37;28.00;61.10
63017;DHT22;50274;45.640;11.756;2023-07-29T08:53:06;27.90;61.50
63017;DHT22;50274;45.640;11.756;2023-07-29T08:55:32;27.80;62.00
63017;DHT22;50274;45.640;11.756;2023-07-29T08:58:00;27.80;62.20
63017;DHT22;50274;45.640;11.756;2023-07-29T09:00:28;27.70;62.50
63017;DHT22;50274;45.640;11.756;2023-07-29T09:03:25;27.80;62.70
63017;DHT22;50274;45.640;11.756;2023-07-29T09:06:21;28.10;62.30
63017;DHT22;50274;45.640;11.756;2023-07-29T09:09:22;28.40;61.80
63017;DHT22;50274;45.640;11.756;2023-07-29T09:11:58;28.70;61.10
63017;DHT22;50274;45.640;11.756;2023-07-29T09:14:24;28.90;60.30
63017;DHT22;50274;45.640;11.756;2023-07-29T09:16:50;29.10;59.40
63017;DHT22;50274;45.640;11.756;2023-07-29T09:19:16;29.20;59.00
63017;DHT22;50274;45.640;11.756;2023-07-29T09:21:42;29.20;58.00
63017;DHT22;50274;45.640;11.756;2023-07-29T09:24:12;29.20;57.60
63017;DHT22;50274;45.640;11.756;2023-07-29T09:26:49;29.30;58.00
63017;DHT22;50274;45.640;11.756;2023-07-29T09:29:16;29.30;58.40
63017;DHT22;50274;45.640;11.756;2023-07-29T09:31:47;29.40;56.90
63017;DHT22;50274;45.640;11.756;2023-07-29T09:34:15;29.50;56.90
63017;DHT22;50274;45.640;11.756;2023-07-29T09:36:43;29.60;56.80
63017;DHT22;50274;45.640;11.756;2023-07-29T09:39:12;29.70;56.70
63017;DHT22;50274;45.640;11.756;2023-07-29T09:41:38;29.70;56.60
63017;DHT22;50274;45.640;11.756;2023-07-29T09:44:04;29.80;56.60
63017;DHT22;50274;45.640;11.756;2023-07-29T09:46:37;29.90;56.40
63017;DHT22;50274;45.640;11.756;2023-07-29T09:49:05;30.00;55.50
63017;DHT22;50274;45.640;11.756;2023-07-29T09:51:31;30.00;55.20
63017;DHT22;50274;45.640;11.756;2023-07-29T09:53:57;30.20;55.20
63017;DHT22;50274;45.640;11.756;2023-07-29T09:56:26;30.30;55.30
63017;DHT22;50274;45.640;11.756;2023-07-29T09:58:55;30.50;54.60
63017;DHT22;50274;45.640;11.756;2023-07-29T10:01:21;30.60;54.40
63017;DHT22;50274;45.640;11.756;2023-07-29T10:03:47;30.70;54.20
63017;DHT22;50274;45.640;11.756;2023-07-29T10:06:14;30.80;53.20
63017;DHT22;50274;45.640;11.756;2023-07-29T10:08:42;31.00;53.50
63017;DHT22;50274;45.640;11.756;2023-07-29T10:11:10;31.00;52.80
63017;DHT22;50274;45.640;11.756;2023-07-29T10:13:37;31.00;51.40
63017;DHT22;50274;45.640;11.756;2023-07-29T10:16:04;31.10;51.30
63017;DHT22;50274;45.640;11.756;2023-07-29T10:18:31;31.10;50.80
63017;DHT22;50274;45.640;11.756;2023-07-29T10:20:58;31.30;50.70
63017;DHT22;50274;45.640;11.756;2023-07-29T10:23:26;31.30;50.30
63017;DHT22;50274;45.640;11.756;2023-07-29T10:26:03;31.40;50.40
63017;DHT22;50274;45.640;11.756;2023-07-29T10:28:31;31.50;50.60
63017;DHT22;50274;45.640;11.756;2023-07-29T10:30:58;31.50;50.60
63017;DHT22;50274;45.640;11.756;2023-07-29T10:33:25;31.60;50.30
63017;DHT22;50274;45.640;11.756;2023-07-29T10:35:53;31.70;50.20
63017;DHT22;50274;45.640;11.756;2023-07-29T10:38:24;31.70;50.30
63017;DHT22;50274;45.640;11.756;2023-07-29T10:40:55;31.80;50.60
63017;DHT22;50274;45.640;11.756;2023-07-29T10:45:52;32.10;50.20
63017;DHT22;50274;45.640;11.756;2023-07-29T10:51:24;31.90;49.80
63017;DHT22;50274;45.640;11.756;2023-07-29T10:53:59;31.90;50.10
63017;DHT22;50274;45.640;11.756;2023-07-29T10:56:33;32.00;50.30
63017;DHT22;50274;45.640;11.756;2023-07-29T11:01:54;32.20;49.40
63017;DHT22;50274;45.640;11.756;2023-07-29T11:20:09;32.80;48.10
63017;DHT22;50274;45.640;11.756;2023-07-29T11:22:36;32.90;46.50
63017;DHT22;50274;45.640;11.756;2023-07-29T11:25:02;33.00;46.20
63017;DHT22;50274;45.640;11.756;2023-07-29T11:27:28;32.90;45.60
63017;DHT22;50274;45.640;11.756;2023-07-29T11:29:58;33.00;46.00
63017;DHT22;50274;45.640;11.756;2023-07-29T11:32:25;32.90;45.90
63017;DHT22;50274;45.640;11.756;2023-07-29T11:34:51;33.10;45.80
63017;DHT22;50274;45.640;11.756;2023-07-29T11:37:17;33.20;46.20
63017;DHT22;50274;45.640;11.756;2023-07-29T11:39:44;33.30;45.70
63017;DHT22;50274;45.640;11.756;2023-07-29T11:42:11;33.30;44.90
63017;DHT22;50274;45.640;11.756;2023-07-29T11:44:38;33.50;45.50
63017;DHT22;50274;45.640;11.756;2023-07-29T11:47:11;33.60;44.50
63017;DHT22;50274;45.640;11.756;2023-07-29T11:49:40;33.60;44.50
63017;DHT22;50274;45.640;11.756;2023-07-29T11:52:07;33.60;44.40
63017;DHT22;50274;45.640;11.756;2023-07-29T11:54:38;33.70;44.20
63017;DHT22;50274;45.640;11.756;2023-07-29T11:57:08;33.90;44.40
63017;DHT22;50274;45.640;11.756;2023-07-29T11:59:38;34.00;44.50
63017;DHT22;50274;45.640;11.756;2023-07-29T12:02:10;34.10;44.10
63017;DHT22;50274;45.640;11.756;2023-07-29T12:04:38;34.30;43.50
63017;DHT22;50274;45.640;11.756;2023-07-29T12:07:04;34.50;43.20
63017;DHT22;50274;45.640;11.756;2023-07-29T12:09:34;34.50;42.90
63017;DHT22;50274;45.640;11.756;2023-07-29T12:12:01;34.50;42.50
63017;DHT22;50274;45.640;11.756;2023-07-29T12:14:30;34.50;42.60
63017;DHT22;50274;45.640;11.756;2023-07-29T12:17:03;34.70;42.50
63017;DHT22;50274;45.640;11.756;2023-07-29T12:19:33;34.60;41.50
63017;DHT22;50274;45.640;11.756;2023-07-29T12:22:05;34.60;41.90
63017;DHT22;50274;45.640;11.756;2023-07-29T12:24:34;34.60;41.60
63017;DHT22;50274;45.640;11.756;2023-07-29T12:27:01;34.70;41.80
63017;DHT22;50274;45.640;11.756;2023-07-29T12:29:29;34.90;41.20
63017;DHT22;50274;45.640;11.756;2023-07-29T12:32:00;35.00;41.10
63017;DHT22;50274;45.640;11.756;2023-07-29T12:34:28;35.00;41.00
63017;DHT22;50274;45.640;11.756;2023-07-29T12:36:54;35.10;40.70
63017;DHT22;50274;45.640;11.756;2023-07-29T12:39:29;35.10;41.40
63017;DHT22;50274;45.640;11.756;2023-07-29T12:41:57;35.10;41.50
63017;DHT22;50274;45.640;11.756;2023-07-29T12:44:24;35.10;41.00
63017;DHT22;50274;45.640;11.756;2023-07-29T12:46:51;34.90;39.80
63017;DHT22;50274;45.640;11.756;2023-07-29T12:49:18;34.80;40.00
63017;DHT22;50274;45.640;11.756;2023-07-29T12:51:44;34.90;40.30
63017;DHT22;50274;45.640;11.756;2023-07-29T12:54:10;34.90;40.90
63017;DHT22;50274;45.640;11.756;2023-07-29T12:56:36;34.70;41.10
63017;DHT22;50274;45.640;11.756;2023-07-29T12:59:02;34.90;41.10
63017;DHT22;50274;45.640;11.756;2023-07-29T13:01:31;34.80;40.40
63017;DHT22;50274;45.640;11.756;2023-07-29T13:03:57;34.90;40.60
63017;DHT22;50274;45.640;11.756;2023-07-29T13:06:23;34.90;41.00
63017;DHT22;50274;45.640;11.756;2023-07-29T13:08:49;34.80;41.10
63017;DHT22;50274;45.640;11.756;2023-07-29T13:11:16;34.90;41.30
63017;DHT22;50274;45.640;11.756;2023-07-29T13:13:44;34.80;41.90
63017;DHT22;50274;45.640;11.756;2023-07-29T13:16:11;34.80;42.00
63017;DHT22;50274;45.640;11.756;2023-07-29T13:18:41;34.80;42.20
63017;DHT22;50274;45.640;11.756;2023-07-29T13:21:10;34.80;42.10
63017;DHT22;50274;45.640;11.756;2023-07-29T13:23:36;34.70;42.50
63017;DHT22;50274;45.640;11.756;2023-07-29T13:26:02;34.80;42.50
63017;DHT22;50274;45.640;11.756;2023-07-29T13:28:30;34.90;42.30
63017;DHT22;50274;45.640;11.756;2023-07-29T13:30:58;34.90;41.80
63017;DHT22;50274;45.640;11.756;2023-07-29T13:33:25;35.00;42.10
63017;DHT22;50274;45.640;11.756;2023-07-29T13:35:53;35.00;42.00
63017;DHT22;50274;45.640;11.756;2023-07-29T13:38:21;35.10;41.90
63017;DHT22;50274;45.640;11.756;2023-07-29T13:40:50;35.20;42.20
63017;DHT22;50274;45.640;11.756;2023-07-29T13:43:18;35.20;42.20
63017;DHT22;50274;45.640;11.756;2023-07-29T13:45:47;35.20;41.90
63017;DHT22;50274;45.640;11.756;2023-07-29T13:48:15;35.20;41.50
63017;DHT22;50274;45.640;11.756;2023-07-29T13:50:43;35.20;41.30
63017;DHT22;50274;45.640;11.756;2023-07-29T13:53:09;35.10;41.30
63017;DHT22;50274;45.640;11.756;2023-07-29T13:55:38;35.10;41.50
63017;DHT22;50274;45.640;11.756;2023-07-29T13:58:06;34.90;41.70
63017;DHT22;50274;45.640;11.756;2023-07-29T14:00:34;34.90;42.40
63017;DHT22;50274;45.640;11.756;2023-07-29T14:03:02;34.90;42.60
63017;DHT22;50274;45.640;11.756;2023-07-29T14:05:31;35.00;42.80
63017;DHT22;50274;45.640;11.756;2023-07-29T14:07:57;35.00;42.80
63017;DHT22;50274;45.640;11.756;2023-07-29T14:10:23;35.00;42.90
63017;DHT22;50274;45.640;11.756;2023-07-29T14:12:49;35.10;43.00
63017;DHT22;50274;45.640;11.756;2023-07-29T14:15:15;35.00;42.50
63017;DHT22;50274;45.640;11.756;2023-07-29T14:17:41;34.90;41.90
63017;DHT22;50274;45.640;11.756;2023-07-29T14:20:10;34.90;42.40
63017;DHT22;50274;45.640;11.756;2023-07-29T14:22:37;34.80;42.00
63017;DHT22;50274;45.640;11.756;2023-07-29T14:25:05;34.80;42.30
63017;DHT22;50274;45.640;11.756;2023-07-29T14:27:32;34.70;42.70
63017;DHT22;50274;45.640;11.756;2023-07-29T14:29:58;34.70;42.40
63017;DHT22;50274;45.640;11.756;2023-07-29T14:32:26;34.70;43.30
63017;DHT22;50274;45.640;11.756;2023-07-29T14:34:54;34.70;43.40
63017;DHT22;50274;45.640;11.756;2023-07-29T14:37:20;34.60;43.20
63017;DHT22;50274;45.640;11.756;2023-07-29T14:39:48;34.60;43.50
63017;DHT22;50274;45.640;11.756;2023-07-29T14:42:14;34.60;43.00
63017;DHT22;50274;45.640;11.756;2023-07-29T14:44:42;34.30;42.70
63017;DHT22;50274;45.640;11.756;2023-07-29T14:47:08;34.00;43.40
63017;DHT22;50274;45.640;11.756;2023-07-29T14:49:34;33.80;44.10
63017;DHT22;50274;45.640;11.756;2023-07-29T14:52:00;33.70;44.20
63017;DHT22;50274;45.640;11.756;2023-07-29T14:54:26;33.60;44.30
63017;DHT22;50274;45.640;11.756;2023-07-29T14:56:52;33.50;44.40
63017;DHT22;50274;45.640;11.756;2023-07-29T14:59:18;33.20;44.80
63017;DHT22;50274;45.640;11.756;2023-07-29T15:01:46;32.90;45.40
63017;DHT22;50274;45.640;11.756;2023-07-29T15:04:15;32.70;46.30
63017;DHT22;50274;45.640;11.756;2023-07-29T15:06:44;32.60;46.60
63017;DHT22;50274;45.640;11.756;2023-07-29T15:09:10;32.40;47.10
63017;DHT22;50274;45.640;11.756;2023-07-29T15:11:36;32.30;47.40
63017;DHT22;50274;45.640;11.756;2023-07-29T15:14:02;32.40;47.40
63017;DHT22;50274;45.640;11.756;2023-07-29T15:16:31;32.60;47.50
63017;DHT22;50274;45.640;11.756;2023-07-29T15:18:59;32.60;46.90
63017;DHT22;50274;45.640;11.756;2023-07-29T15:21:26;32.50;46.60
63017;DHT22;50274;45.640;11.756;2023-07-29T15:23:52;32.30;46.30
63017;DHT22;50274;45.640;11.756;2023-07-29T15:26:18;32.10;46.20
63017;DHT22;50274;45.640;11.756;2023-07-29T15:28:44;32.00;46.30
63017;DHT22;50274;45.640;11.756;2023-07-29T15:31:12;31.80;46.00
63017;DHT22;50274;45.640;11.756;2023-07-29T15:33:38;31.80;45.90
63017;DHT22;50274;45.640;11.756;2023-07-29T15:36:07;31.70;46.10
63017;DHT22;50274;45.640;11.756;2023-07-29T15:38:33;31.60;45.80
63017;DHT22;50274;45.640;11.756;2023-07-29T15:41:01;31.50;46.20
63017;DHT22;50274;45.640;11.756;2023-07-29T15:43:27;31.50;46.60
63017;DHT22;50274;45.640;11.756;2023-07-29T15:45:58;31.40;46.60
63017;DHT22;50274;45.640;11.756;2023-07-29T15:48:24;31.50;46.80
63017;DHT22;50274;45.640;11.756;2023-07-29T15:50:53;31.60;47.20